Main page
METAR-TAF:

METAR-TAF

Airports :

Langlade County Airport

Antigo, Wisconsin, United States

latitude: 45-09-15N, longitude: 89-06-39W, elevation: 1522 ft

Current weather observation

The report was made 16 minutes ago, at 15:15 UTC
Wind 7 mph from the West/Northwest
Temperature 75°F
Humidity 74%
Pressure 30.01 in. Hg
Visibility: 10 miles
Clear sky

METAR: KAIG 071515Z AUTO 29006KT 10SM CLR 24/19 A3001 RMK AO2 T02430191

Time: 10:31 (15:31 UTC)


TAF: missing

Weather observations and forecasts of more than 4000 airports (METAR and TAF reports).

The available stations are represented by yellow and red dots on the map.

Hover mouse over dot to see the name of the station.

Then click to see weather observations and forecasts.

To change the map : click on the green buttons with a black cross to zoom in, on the green button with a dash to zoom out, or on the green arrows for adjacent maps.


METAR-TAF: